sensor_id;sensor_type;location;lat;lon;timestamp;temperature;humidity
45729;DHT22;31439;53.512;10.206;2023-10-19T00:02:05;9.00;99.90
45729;DHT22;31439;53.512;10.206;2023-10-19T00:04:32;9.00;99.90
45729;DHT22;31439;53.512;10.206;2023-10-19T00:07:01;9.00;99.90
45729;DHT22;31439;53.512;10.206;2023-10-19T00:09:26;9.10;99.90
45729;DHT22;31439;53.512;10.206;2023-10-19T00:12:01;9.10;99.90
45729;DHT22;31439;53.512;10.206;2023-10-19T00:14:28;9.10;99.90
45729;DHT22;31439;53.512;10.206;2023-10-19T00:16:53;9.00;99.90
45729;DHT22;31439;53.512;10.206;2023-10-19T00:19:25;9.00;99.90
45729;DHT22;31439;53.512;10.206;2023-10-19T00:21:53;9.00;99.90
45729;DHT22;31439;53.512;10.206;2023-10-19T00:24:27;9.00;99.90
45729;DHT22;31439;53.512;10.206;2023-10-19T00:26:53;9.00;99.90
45729;DHT22;31439;53.512;10.206;2023-10-19T00:29:20;9.10;99.90
45729;DHT22;31439;53.512;10.206;2023-10-19T00:31:57;9.10;99.90
45729;DHT22;31439;53.512;10.206;2023-10-19T00:34:23;9.00;99.90
45729;DHT22;31439;53.512;10.206;2023-10-19T00:36:50;9.00;99.90
45729;DHT22;31439;53.512;10.206;2023-10-19T00:39:17;9.00;99.90
45729;DHT22;31439;53.512;10.206;2023-10-19T00:41:52;9.00;99.90
45729;DHT22;31439;53.512;10.206;2023-10-19T00:44:22;9.00;99.90
45729;DHT22;31439;53.512;10.206;2023-10-19T00:46:50;9.00;99.90
45729;DHT22;31439;53.512;10.206;2023-10-19T00:49:38;9.00;99.90
45729;DHT22;31439;53.512;10.206;2023-10-19T00:52:06;9.00;99.90
45729;DHT22;31439;53.512;10.206;2023-10-19T00:54:46;9.00;99.90
45729;DHT22;31439;53.512;10.206;2023-10-19T00:57:16;9.00;99.90
45729;DHT22;31439;53.512;10.206;2023-10-19T00:59:45;9.00;99.90
45729;DHT22;31439;53.512;10.206;2023-10-19T01:02:26;9.00;99.90
45729;DHT22;31439;53.512;10.206;2023-10-19T01:04:53;9.00;99.90
45729;DHT22;31439;53.512;10.206;2023-10-19T01:07:28;9.00;99.90
45729;DHT22;31439;53.512;10.206;2023-10-19T01:09:59;9.00;99.90
45729;DHT22;31439;53.512;10.206;2023-10-19T01:12:26;9.00;99.90
45729;DHT22;31439;53.512;10.206;2023-10-19T01:15:15;9.00;99.90
45729;DHT22;31439;53.512;10.206;2023-10-19T01:17:54;9.00;99.90
45729;DHT22;31439;53.512;10.206;2023-10-19T01:20:25;9.00;99.90
45729;DHT22;31439;53.512;10.206;2023-10-19T01:23:04;9.00;99.90
45729;DHT22;31439;53.512;10.206;2023-10-19T01:25:57;9.00;99.90
45729;DHT22;31439;53.512;10.206;2023-10-19T01:28:24;9.00;99.90
45729;DHT22;31439;53.512;10.206;2023-10-19T01:30:54;9.00;99.90
45729;DHT22;31439;53.512;10.206;2023-10-19T01:33:20;9.00;99.90
45729;DHT22;31439;53.512;10.206;2023-10-19T01:35:50;9.00;99.90
45729;DHT22;31439;53.512;10.206;2023-10-19T01:38:34;8.90;99.90
45729;DHT22;31439;53.512;10.206;2023-10-19T01:41:01;8.90;99.90
45729;DHT22;31439;53.512;10.206;2023-10-19T01:43:27;9.00;99.90
45729;DHT22;31439;53.512;10.206;2023-10-19T01:45:56;9.00;99.90
45729;DHT22;31439;53.512;10.206;2023-10-19T01:48:22;9.00;99.90
45729;DHT22;31439;53.512;10.206;2023-10-19T01:50:57;9.00;99.90
45729;DHT22;31439;53.512;10.206;2023-10-19T01:53:23;9.00;99.90
45729;DHT22;31439;53.512;10.206;2023-10-19T01:55:50;9.00;99.90
45729;DHT22;31439;53.512;10.206;2023-10-19T01:58:26;9.00;99.90
45729;DHT22;31439;53.512;10.206;2023-10-19T02:00:53;9.00;99.90
45729;DHT22;31439;53.512;10.206;2023-10-19T02:03:20;9.00;99.90
45729;DHT22;31439;53.512;10.206;2023-10-19T02:06:00;9.00;99.90
45729;DHT22;31439;53.512;10.206;2023-10-19T02:08:31;8.90;99.90
45729;DHT22;31439;53.512;10.206;2023-10-19T02:10:57;8.90;99.90
45729;DHT22;31439;53.512;10.206;2023-10-19T02:13:23;9.00;99.90
45729;DHT22;31439;53.512;10.206;2023-10-19T02:15:49;9.00;99.90
45729;DHT22;31439;53.512;10.206;2023-10-19T02:18:14;8.90;99.90
45729;DHT22;31439;53.512;10.206;2023-10-19T02:20:42;8.90;99.90
45729;DHT22;31439;53.512;10.206;2023-10-19T02:23:13;8.90;99.90
45729;DHT22;31439;53.512;10.206;2023-10-19T02:25:40;9.00;99.90
45729;DHT22;31439;53.512;10.206;2023-10-19T02:28:06;9.00;99.90
45729;DHT22;31439;53.512;10.206;2023-10-19T02:30:33;9.00;99.90
45729;DHT22;31439;53.512;10.206;2023-10-19T02:33:00;9.00;99.90
45729;DHT22;31439;53.512;10.206;2023-10-19T02:35:27;8.90;99.90
45729;DHT22;31439;53.512;10.206;2023-10-19T02:37:55;8.90;99.90
45729;DHT22;31439;53.512;10.206;2023-10-19T02:40:21;8.90;99.90
45729;DHT22;31439;53.512;10.206;2023-10-19T02:42:48;8.90;99.90
45729;DHT22;31439;53.512;10.206;2023-10-19T02:45:16;9.00;99.90
45729;DHT22;31439;53.512;10.206;2023-10-19T02:47:46;9.00;99.90
45729;DHT22;31439;53.512;10.206;2023-10-19T02:50:12;9.00;99.90
45729;DHT22;31439;53.512;10.206;2023-10-19T02:52:42;9.00;99.90
45729;DHT22;31439;53.512;10.206;2023-10-19T02:55:09;9.00;99.90
45729;DHT22;31439;53.512;10.206;2023-10-19T02:57:36;9.00;99.90
45729;DHT22;31439;53.512;10.206;2023-10-19T03:00:05;8.90;99.90
45729;DHT22;31439;53.512;10.206;2023-10-19T03:02:37;8.90;99.90
45729;DHT22;31439;53.512;10.206;2023-10-19T03:05:04;9.00;99.90
45729;DHT22;31439;53.512;10.206;2023-10-19T03:07:41;9.00;99.90
45729;DHT22;31439;53.512;10.206;2023-10-19T03:10:10;9.00;99.90
45729;DHT22;31439;53.512;10.206;2023-10-19T03:12:50;9.00;99.90
45729;DHT22;31439;53.512;10.206;2023-10-19T03:15:19;9.00;99.90
45729;DHT22;31439;53.512;10.206;2023-10-19T03:17:46;9.00;99.90
45729;DHT22;31439;53.512;10.206;2023-10-19T03:20:12;9.00;99.90
45729;DHT22;31439;53.512;10.206;2023-10-19T03:22:38;9.00;99.90
45729;DHT22;31439;53.512;10.206;2023-10-19T03:25:06;9.10;99.90
45729;DHT22;31439;53.512;10.206;2023-10-19T03:27:51;9.00;99.90
45729;DHT22;31439;53.512;10.206;2023-10-19T03:30:17;9.00;99.90
45729;DHT22;31439;53.512;10.206;2023-10-19T03:32:44;9.10;99.90
45729;DHT22;31439;53.512;10.206;2023-10-19T03:35:10;9.10;99.90
45729;DHT22;31439;53.512;10.206;2023-10-19T03:37:40;9.10;99.90
45729;DHT22;31439;53.512;10.206;2023-10-19T03:40:07;9.10;99.90
45729;DHT22;31439;53.512;10.206;2023-10-19T03:42:35;9.10;99.90
45729;DHT22;31439;53.512;10.206;2023-10-19T03:45:09;9.10;99.90
45729;DHT22;31439;53.512;10.206;2023-10-19T03:47:41;9.00;99.90
45729;DHT22;31439;53.512;10.206;2023-10-19T03:50:09;9.00;99.90
45729;DHT22;31439;53.512;10.206;2023-10-19T03:52:40;9.00;99.90
45729;DHT22;31439;53.512;10.206;2023-10-19T03:55:06;9.00;99.90
45729;DHT22;31439;53.512;10.206;2023-10-19T03:57:37;8.90;99.90
45729;DHT22;31439;53.512;10.206;2023-10-19T04:00:08;8.90;99.90
45729;DHT22;31439;53.512;10.206;2023-10-19T04:02:41;8.80;99.90
45729;DHT22;31439;53.512;10.206;2023-10-19T04:05:08;8.80;99.90
45729;DHT22;31439;53.512;10.206;2023-10-19T04:07:40;8.70;99.90
45729;DHT22;31439;53.512;10.206;2023-10-19T04:10:07;8.70;99.90
45729;DHT22;31439;53.512;10.206;2023-10-19T04:12:35;8.70;99.90
45729;DHT22;31439;53.512;10.206;2023-10-19T04:15:02;8.70;99.90
45729;DHT22;31439;53.512;10.206;2023-10-19T04:17:47;8.70;99.90
45729;DHT22;31439;53.512;10.206;2023-10-19T04:20:17;8.60;99.90
45729;DHT22;31439;53.512;10.206;2023-10-19T04:22:46;8.60;99.90
45729;DHT22;31439;53.512;10.206;2023-10-19T04:25:12;8.60;99.90
45729;DHT22;31439;53.512;10.206;2023-10-19T04:27:39;8.60;99.90
45729;DHT22;31439;53.512;10.206;2023-10-19T04:30:08;8.60;99.90
45729;DHT22;31439;53.512;10.206;2023-10-19T04:32:44;8.60;99.90
45729;DHT22;31439;53.512;10.206;2023-10-19T04:35:11;8.60;99.90
45729;DHT22;31439;53.512;10.206;2023-10-19T04:37:38;8.60;99.90
45729;DHT22;31439;53.512;10.206;2023-10-19T04:40:08;8.60;99.90
45729;DHT22;31439;53.512;10.206;2023-10-19T04:42:34;8.60;99.90
45729;DHT22;31439;53.512;10.206;2023-10-19T04:45:02;8.60;99.90
45729;DHT22;31439;53.512;10.206;2023-10-19T04:47:28;8.60;99.90
45729;DHT22;31439;53.512;10.206;2023-10-19T04:49:53;8.60;99.90
45729;DHT22;31439;53.512;10.206;2023-10-19T04:52:19;8.60;99.90
45729;DHT22;31439;53.512;10.206;2023-10-19T04:54:45;8.60;99.90
45729;DHT22;31439;53.512;10.206;2023-10-19T04:57:10;8.60;99.90
45729;DHT22;31439;53.512;10.206;2023-10-19T04:59:36;8.50;99.90
45729;DHT22;31439;53.512;10.206;2023-10-19T05:02:02;8.40;99.90
45729;DHT22;31439;53.512;10.206;2023-10-19T05:04:28;8.40;99.90
45729;DHT22;31439;53.512;10.206;2023-10-19T05:06:55;8.50;99.90
45729;DHT22;31439;53.512;10.206;2023-10-19T05:09:21;8.50;99.90
45729;DHT22;31439;53.512;10.206;2023-10-19T05:11:46;8.50;99.90
45729;DHT22;31439;53.512;10.206;2023-10-19T05:14:15;8.40;99.90
45729;DHT22;31439;53.512;10.206;2023-10-19T05:16:40;8.40;99.90
45729;DHT22;31439;53.512;10.206;2023-10-19T05:19:06;8.40;99.90
45729;DHT22;31439;53.512;10.206;2023-10-19T05:21:32;8.40;99.90
45729;DHT22;31439;53.512;10.206;2023-10-19T05:23:59;8.40;99.90
45729;DHT22;31439;53.512;10.206;2023-10-19T05:26:27;8.40;99.90
45729;DHT22;31439;53.512;10.206;2023-10-19T05:28:53;8.40;99.90
45729;DHT22;31439;53.512;10.206;2023-10-19T05:31:20;8.40;99.90
45729;DHT22;31439;53.512;10.206;2023-10-19T05:33:45;8.40;99.90
45729;DHT22;31439;53.512;10.206;2023-10-19T05:36:14;8.40;99.90
45729;DHT22;31439;53.512;10.206;2023-10-19T05:38:40;8.30;99.90
45729;DHT22;31439;53.512;10.206;2023-10-19T05:41:06;8.20;99.90
45729;DHT22;31439;53.512;10.206;2023-10-19T05:43:33;8.20;99.90
45729;DHT22;31439;53.512;10.206;2023-10-19T05:46:00;8.20;99.90
45729;DHT22;31439;53.512;10.206;2023-10-19T05:48:25;8.20;99.90
45729;DHT22;31439;53.512;10.206;2023-10-19T05:50:51;8.20;99.90
45729;DHT22;31439;53.512;10.206;2023-10-19T05:53:17;8.20;99.90
45729;DHT22;31439;53.512;10.206;2023-10-19T05:55:44;8.30;99.90
45729;DHT22;31439;53.512;10.206;2023-10-19T05:58:11;8.20;99.90
45729;DHT22;31439;53.512;10.206;2023-10-19T06:00:36;8.20;99.90
45729;DHT22;31439;53.512;10.206;2023-10-19T06:03:02;8.20;99.90
45729;DHT22;31439;53.512;10.206;2023-10-19T06:05:28;8.20;99.90
45729;DHT22;31439;53.512;10.206;2023-10-19T06:07:55;8.20;99.90
45729;DHT22;31439;53.512;10.206;2023-10-19T06:10:21;8.20;99.90
45729;DHT22;31439;53.512;10.206;2023-10-19T06:12:51;8.20;99.90
45729;DHT22;31439;53.512;10.206;2023-10-19T06:15:21;8.20;99.90
45729;DHT22;31439;53.512;10.206;2023-10-19T06:17:50;8.10;99.90
45729;DHT22;31439;53.512;10.206;2023-10-19T06:20:16;8.10;99.90
45729;DHT22;31439;53.512;10.206;2023-10-19T06:22:53;8.20;99.90
45729;DHT22;31439;53.512;10.206;2023-10-19T06:25:20;8.30;99.90
45729;DHT22;31439;53.512;10.206;2023-10-19T06:27:47;8.20;99.90
45729;DHT22;31439;53.512;10.206;2023-10-19T06:30:14;8.30;99.90
45729;DHT22;31439;53.512;10.206;2023-10-19T06:32:57;8.20;99.90
45729;DHT22;31439;53.512;10.206;2023-10-19T06:35:27;8.30;99.90
45729;DHT22;31439;53.512;10.206;2023-10-19T06:37:54;8.30;99.90
45729;DHT22;31439;53.512;10.206;2023-10-19T06:40:23;8.20;99.90
45729;DHT22;31439;53.512;10.206;2023-10-19T06:42:49;8.20;99.90
45729;DHT22;31439;53.512;10.206;2023-10-19T06:45:16;8.30;99.90
45729;DHT22;31439;53.512;10.206;2023-10-19T06:47:49;8.20;99.90
45729;DHT22;31439;53.512;10.206;2023-10-19T06:50:20;8.20;99.90
45729;DHT22;31439;53.512;10.206;2023-10-19T06:52:46;8.20;99.90
45729;DHT22;31439;53.512;10.206;2023-10-19T06:55:14;8.20;99.90
45729;DHT22;31439;53.512;10.206;2023-10-19T06:57:48;8.30;99.90
45729;DHT22;31439;53.512;10.206;2023-10-19T07:00:15;8.20;99.90
45729;DHT22;31439;53.512;10.206;2023-10-19T07:02:50;8.20;99.90
45729;DHT22;31439;53.512;10.206;2023-10-19T07:05:17;8.30;99.90
45729;DHT22;31439;53.512;10.206;2023-10-19T07:07:56;8.30;99.90
45729;DHT22;31439;53.512;10.206;2023-10-19T07:10:24;8.20;99.90
45729;DHT22;31439;53.512;10.206;2023-10-19T07:12:54;8.20;99.90
45729;DHT22;31439;53.512;10.206;2023-10-19T07:15:20;8.20;99.90
45729;DHT22;31439;53.512;10.206;2023-10-19T07:17:48;8.30;99.90
45729;DHT22;31439;53.512;10.206;2023-10-19T07:20:16;8.30;99.90
45729;DHT22;31439;53.512;10.206;2023-10-19T07:22:53;8.30;99.90
45729;DHT22;31439;53.512;10.206;2023-10-19T07:25:20;8.30;99.90
45729;DHT22;31439;53.512;10.206;2023-10-19T07:27:50;8.30;99.90
45729;DHT22;31439;53.512;10.206;2023-10-19T07:30:20;8.30;99.90
45729;DHT22;31439;53.512;10.206;2023-10-19T07:32:52;8.30;99.90
45729;DHT22;31439;53.512;10.206;2023-10-19T07:35:24;8.40;99.90
45729;DHT22;31439;53.512;10.206;2023-10-19T07:37:51;8.40;99.90
45729;DHT22;31439;53.512;10.206;2023-10-19T07:40:17;8.40;99.90
45729;DHT22;31439;53.512;10.206;2023-10-19T07:42:46;8.40;99.90
45729;DHT22;31439;53.512;10.206;2023-10-19T07:45:14;8.40;99.90
45729;DHT22;31439;53.512;10.206;2023-10-19T07:47:41;8.40;99.90
45729;DHT22;31439;53.512;10.206;2023-10-19T07:50:12;8.40;99.90
45729;DHT22;31439;53.512;10.206;2023-10-19T07:52:50;8.50;99.90
45729;DHT22;31439;53.512;10.206;2023-10-19T07:55:17;8.40;99.90
45729;DHT22;31439;53.512;10.206;2023-10-19T07:57:43;8.50;99.90
45729;DHT22;31439;53.512;10.206;2023-10-19T08:00:11;8.50;99.90
45729;DHT22;31439;53.512;10.206;2023-10-19T08:02:39;8.50;99.90
45729;DHT22;31439;53.512;10.206;2023-10-19T08:05:10;8.60;99.90
45729;DHT22;31439;53.512;10.206;2023-10-19T08:07:38;8.50;99.90
45729;DHT22;31439;53.512;10.206;2023-10-19T08:10:09;8.50;99.90
45729;DHT22;31439;53.512;10.206;2023-10-19T08:12:36;8.50;99.90
45729;DHT22;31439;53.512;10.206;2023-10-19T08:15:03;8.40;99.90
45729;DHT22;31439;53.512;10.206;2023-10-19T08:17:29;8.50;99.90
45729;DHT22;31439;53.512;10.206;2023-10-19T08:19:55;8.50;99.90
45729;DHT22;31439;53.512;10.206;2023-10-19T08:22:22;8.60;99.90
45729;DHT22;31439;53.512;10.206;2023-10-19T08:24:49;8.50;99.90
45729;DHT22;31439;53.512;10.206;2023-10-19T08:27:15;8.60;99.90
45729;DHT22;31439;53.512;10.206;2023-10-19T08:29:42;8.50;99.90
45729;DHT22;31439;53.512;10.206;2023-10-19T08:32:08;8.50;99.90
45729;DHT22;31439;53.512;10.206;2023-10-19T08:34:35;8.50;99.90
45729;DHT22;31439;53.512;10.206;2023-10-19T08:37:02;8.50;99.90
45729;DHT22;31439;53.512;10.206;2023-10-19T08:39:28;8.50;99.90
45729;DHT22;31439;53.512;10.206;2023-10-19T08:42:04;8.50;99.90
45729;DHT22;31439;53.512;10.206;2023-10-19T08:44:30;8.40;99.90
45729;DHT22;31439;53.512;10.206;2023-10-19T08:46:56;8.40;99.90
45729;DHT22;31439;53.512;10.206;2023-10-19T08:49:23;8.40;99.90
45729;DHT22;31439;53.512;10.206;2023-10-19T08:51:49;8.40;99.90
45729;DHT22;31439;53.512;10.206;2023-10-19T08:54:16;8.50;99.90
45729;DHT22;31439;53.512;10.206;2023-10-19T08:56:42;8.40;99.90
45729;DHT22;31439;53.512;10.206;2023-10-19T08:59:10;8.50;99.90
45729;DHT22;31439;53.512;10.206;2023-10-19T09:01:41;8.50;99.90
45729;DHT22;31439;53.512;10.206;2023-10-19T09:04:10;8.60;99.90
45729;DHT22;31439;53.512;10.206;2023-10-19T09:06:39;8.60;99.90
45729;DHT22;31439;53.512;10.206;2023-10-19T09:09:17;8.50;99.90
45729;DHT22;31439;53.512;10.206;2023-10-19T09:11:47;8.50;99.90
45729;DHT22;31439;53.512;10.206;2023-10-19T09:14:14;8.50;99.90
45729;DHT22;31439;53.512;10.206;2023-10-19T09:17:00;8.60;99.90
45729;DHT22;31439;53.512;10.206;2023-10-19T09:19:43;8.60;99.90
45729;DHT22;31439;53.512;10.206;2023-10-19T09:22:09;8.60;99.90
45729;DHT22;31439;53.512;10.206;2023-10-19T09:24:45;8.40;99.90
45729;DHT22;31439;53.512;10.206;2023-10-19T09:27:12;8.50;99.90
45729;DHT22;31439;53.512;10.206;2023-10-19T09:29:39;8.40;99.90
45729;DHT22;31439;53.512;10.206;2023-10-19T09:32:07;8.50;99.90
45729;DHT22;31439;53.512;10.206;2023-10-19T09:34:34;8.50;99.90
45729;DHT22;31439;53.512;10.206;2023-10-19T09:37:00;8.50;99.90
45729;DHT22;31439;53.512;10.206;2023-10-19T09:39:32;8.40;99.90
45729;DHT22;31439;53.512;10.206;2023-10-19T09:42:11;8.50;99.90
45729;DHT22;31439;53.512;10.206;2023-10-19T09:44:41;8.40;99.90
45729;DHT22;31439;53.512;10.206;2023-10-19T09:47:15;8.40;99.90
45729;DHT22;31439;53.512;10.206;2023-10-19T09:49:43;8.40;99.90
45729;DHT22;31439;53.512;10.206;2023-10-19T09:52:10;8.60;99.90
45729;DHT22;31439;53.512;10.206;2023-10-19T09:54:52;8.80;99.90
45729;DHT22;31439;53.512;10.206;2023-10-19T09:57:26;8.80;99.90
45729;DHT22;31439;53.512;10.206;2023-10-19T09:59:59;8.70;99.90
45729;DHT22;31439;53.512;10.206;2023-10-19T10:02:32;8.70;99.90
45729;DHT22;31439;53.512;10.206;2023-10-19T10:04:58;8.70;99.90
45729;DHT22;31439;53.512;10.206;2023-10-19T10:07:25;8.70;99.90
45729;DHT22;31439;53.512;10.206;2023-10-19T10:09:51;8.70;99.90
45729;DHT22;31439;53.512;10.206;2023-10-19T10:12:23;8.60;99.90
45729;DHT22;31439;53.512;10.206;2023-10-19T10:14:55;8.60;99.90
45729;DHT22;31439;53.512;10.206;2023-10-19T10:17:24;8.60;99.90
45729;DHT22;31439;53.512;10.206;2023-10-19T10:19:53;8.70;99.90
45729;DHT22;31439;53.512;10.206;2023-10-19T10:22:21;8.70;99.90
45729;DHT22;31439;53.512;10.206;2023-10-19T10:24:47;8.60;99.90
45729;DHT22;31439;53.512;10.206;2023-10-19T10:27:19;8.60;99.90
45729;DHT22;31439;53.512;10.206;2023-10-19T10:29:58;8.60;99.90
45729;DHT22;31439;53.512;10.206;2023-10-19T10:32:47;8.60;99.90
45729;DHT22;31439;53.512;10.206;2023-10-19T10:35:53;8.60;99.90
45729;DHT22;31439;53.512;10.206;2023-10-19T10:38:19;8.50;99.90
45729;DHT22;31439;53.512;10.206;2023-10-19T10:40:45;7.60;99.90
45729;DHT22;31439;53.512;10.206;2023-10-19T10:43:12;8.50;99.90
45729;DHT22;31439;53.512;10.206;2023-10-19T10:45:38;8.40;99.90
45729;DHT22;31439;53.512;10.206;2023-10-19T10:48:11;8.50;99.90
45729;DHT22;31439;53.512;10.206;2023-10-19T10:50:37;8.50;99.90
45729;DHT22;31439;53.512;10.206;2023-10-19T10:53:05;8.40;99.90
45729;DHT22;31439;53.512;10.206;2023-10-19T10:55:30;8.80;99.90
45729;DHT22;31439;53.512;10.206;2023-10-19T10:57:57;8.50;99.90
45729;DHT22;31439;53.512;10.206;2023-10-19T11:00:23;8.50;99.90
45729;DHT22;31439;53.512;10.206;2023-10-19T11:03:04;8.50;99.90
45729;DHT22;31439;53.512;10.206;2023-10-19T11:05:30;8.50;99.90
45729;DHT22;31439;53.512;10.206;2023-10-19T11:08:50;8.50;99.90
45729;DHT22;31439;53.512;10.206;2023-10-19T11:10:54;8.50;99.90
45729;DHT22;31439;53.512;10.206;2023-10-19T11:13:27;8.40;99.90
45729;DHT22;31439;53.512;10.206;2023-10-19T11:15:55;8.50;99.90
45729;DHT22;31439;53.512;10.206;2023-10-19T11:21:05;8.50;99.90
45729;DHT22;31439;53.512;10.206;2023-10-19T11:26:04;8.40;99.90
45729;DHT22;31439;53.512;10.206;2023-10-19T11:28:31;8.40;99.90
45729;DHT22;31439;53.512;10.206;2023-10-19T11:31:21;8.40;99.90
45729;DHT22;31439;53.512;10.206;2023-10-19T11:33:50;8.40;99.90
45729;DHT22;31439;53.512;10.206;2023-10-19T11:36:17;8.40;99.90
45729;DHT22;31439;53.512;10.206;2023-10-19T11:38:44;8.50;99.90
45729;DHT22;31439;53.512;10.206;2023-10-19T11:41:11;8.50;99.90
45729;DHT22;31439;53.512;10.206;2023-10-19T11:43:44;8.40;99.90
45729;DHT22;31439;53.512;10.206;2023-10-19T11:46:10;8.40;99.90
45729;DHT22;31439;53.512;10.206;2023-10-19T11:48:37;8.40;99.90
45729;DHT22;31439;53.512;10.206;2023-10-19T11:51:12;8.50;99.90
45729;DHT22;31439;53.512;10.206;2023-10-19T11:53:51;8.40;99.90
45729;DHT22;31439;53.512;10.206;2023-10-19T11:56:16;8.50;99.90
45729;DHT22;31439;53.512;10.206;2023-10-19T11:58:42;8.50;99.90
45729;DHT22;31439;53.512;10.206;2023-10-19T12:01:09;8.40;99.90
45729;DHT22;31439;53.512;10.206;2023-10-19T12:03:41;8.40;99.90
45729;DHT22;31439;53.512;10.206;2023-10-19T12:06:07;8.50;99.90
45729;DHT22;31439;53.512;10.206;2023-10-19T12:08:34;8.60;99.90
45729;DHT22;31439;53.512;10.206;2023-10-19T12:10:59;8.50;99.90
45729;DHT22;31439;53.512;10.206;2023-10-19T12:13:27;8.50;99.90
45729;DHT22;31439;53.512;10.206;2023-10-19T12:15:54;8.50;99.90
45729;DHT22;31439;53.512;10.206;2023-10-19T12:18:21;8.50;99.90
45729;DHT22;31439;53.512;10.206;2023-10-19T12:20:47;8.50;99.90
45729;DHT22;31439;53.512;10.206;2023-10-19T12:23:14;8.60;99.90
45729;DHT22;31439;53.512;10.206;2023-10-19T12:25:42;8.50;99.90
45729;DHT22;31439;53.512;10.206;2023-10-19T12:28:11;8.60;99.90
45729;DHT22;31439;53.512;10.206;2023-10-19T12:30:39;8.60;99.90
45729;DHT22;31439;53.512;10.206;2023-10-19T12:33:06;8.60;99.90
45729;DHT22;31439;53.512;10.206;2023-10-19T12:35:37;8.60;99.90
45729;DHT22;31439;53.512;10.206;2023-10-19T12:38:21;8.60;99.90
45729;DHT22;31439;53.512;10.206;2023-10-19T12:40:48;8.60;99.90
45729;DHT22;31439;53.512;10.206;2023-10-19T12:43:15;8.60;99.90
45729;DHT22;31439;53.512;10.206;2023-10-19T12:45:41;8.60;99.90
45729;DHT22;31439;53.512;10.206;2023-10-19T12:48:07;8.50;99.90
45729;DHT22;31439;53.512;10.206;2023-10-19T12:50:37;8.60;99.90
45729;DHT22;31439;53.512;10.206;2023-10-19T12:53:03;8.50;99.90
45729;DHT22;31439;53.512;10.206;2023-10-19T12:55:29;8.50;99.90
45729;DHT22;31439;53.512;10.206;2023-10-19T12:57:57;8.60;99.90
45729;DHT22;31439;53.512;10.206;2023-10-19T13:00:23;8.70;99.90
45729;DHT22;31439;53.512;10.206;2023-10-19T13:02:50;8.70;99.90
45729;DHT22;31439;53.512;10.206;2023-10-19T13:05:16;8.70;99.90
45729;DHT22;31439;53.512;10.206;2023-10-19T13:07:44;9.10;99.90
45729;DHT22;31439;53.512;10.206;2023-10-19T13:10:10;8.70;99.90
45729;DHT22;31439;53.512;10.206;2023-10-19T13:12:38;8.70;99.90
45729;DHT22;31439;53.512;10.206;2023-10-19T13:15:05;8.70;99.90
45729;DHT22;31439;53.512;10.206;2023-10-19T13:17:39;8.70;99.90
45729;DHT22;31439;53.512;10.206;2023-10-19T13:20:06;8.80;99.90
45729;DHT22;31439;53.512;10.206;2023-10-19T13:22:42;8.70;99.90
45729;DHT22;31439;53.512;10.206;2023-10-19T13:25:08;8.70;99.90
45729;DHT22;31439;53.512;10.206;2023-10-19T13:27:45;8.70;99.90
45729;DHT22;31439;53.512;10.206;2023-10-19T13:30:14;8.70;99.90
45729;DHT22;31439;53.512;10.206;2023-10-19T13:32:43;8.80;99.90
45729;DHT22;31439;53.512;10.206;2023-10-19T13:35:08;8.80;99.90
45729;DHT22;31439;53.512;10.206;2023-10-19T13:37:34;8.80;99.90
45729;DHT22;31439;53.512;10.206;2023-10-19T13:40:02;8.80;99.90
45729;DHT22;31439;53.512;10.206;2023-10-19T13:42:29;8.80;99.90
45729;DHT22;31439;53.512;10.206;2023-10-19T13:44:55;8.80;99.90
45729;DHT22;31439;53.512;10.206;2023-10-19T13:47:22;8.80;99.90
45729;DHT22;31439;53.512;10.206;2023-10-19T13:49:50;8.80;99.90
45729;DHT22;31439;53.512;10.206;2023-10-19T13:52:16;8.00;99.90
45729;DHT22;31439;53.512;10.206;2023-10-19T13:54:41;8.90;99.90
45729;DHT22;31439;53.512;10.206;2023-10-19T13:57:07;8.90;99.90
45729;DHT22;31439;53.512;10.206;2023-10-19T13:59:32;8.90;99.90
45729;DHT22;31439;53.512;10.206;2023-10-19T14:01:59;8.90;99.90
45729;DHT22;31439;53.512;10.206;2023-10-19T14:04:24;8.80;99.90
45729;DHT22;31439;53.512;10.206;2023-10-19T14:06:51;8.90;99.90
45729;DHT22;31439;53.512;10.206;2023-10-19T14:09:17;8.90;99.90
45729;DHT22;31439;53.512;10.206;2023-10-19T14:11:43;9.00;99.90
45729;DHT22;31439;53.512;10.206;2023-10-19T14:14:10;9.00;99.90
45729;DHT22;31439;53.512;10.206;2023-10-19T14:16:36;9.10;99.90
45729;DHT22;31439;53.512;10.206;2023-10-19T14:19:03;9.00;99.90
45729;DHT22;31439;53.512;10.206;2023-10-19T14:21:29;9.00;99.90
45729;DHT22;31439;53.512;10.206;2023-10-19T14:23:55;9.00;99.90
45729;DHT22;31439;53.512;10.206;2023-10-19T14:26:21;8.90;99.90
45729;DHT22;31439;53.512;10.206;2023-10-19T14:28:46;8.90;99.90
45729;DHT22;31439;53.512;10.206;2023-10-19T14:31:12;9.00;99.90
45729;DHT22;31439;53.512;10.206;2023-10-19T14:33:39;9.00;99.90
45729;DHT22;31439;53.512;10.206;2023-10-19T14:36:05;9.10;99.90
45729;DHT22;31439;53.512;10.206;2023-10-19T14:38:34;9.10;99.90
45729;DHT22;31439;53.512;10.206;2023-10-19T14:41:01;9.00;99.90
45729;DHT22;31439;53.512;10.206;2023-10-19T14:43:27;9.00;99.90
45729;DHT22;31439;53.512;10.206;2023-10-19T14:45:55;9.00;99.90
45729;DHT22;31439;53.512;10.206;2023-10-19T14:48:22;9.10;99.90
45729;DHT22;31439;53.512;10.206;2023-10-19T14:50:49;9.00;99.90
45729;DHT22;31439;53.512;10.206;2023-10-19T14:53:17;9.10;99.90
45729;DHT22;31439;53.512;10.206;2023-10-19T14:55:44;9.00;99.90
45729;DHT22;31439;53.512;10.206;2023-10-19T14:58:12;9.00;99.90
45729;DHT22;31439;53.512;10.206;2023-10-19T15:00:41;9.10;99.90
45729;DHT22;31439;53.512;10.206;2023-10-19T15:03:15;9.00;99.90
45729;DHT22;31439;53.512;10.206;2023-10-19T15:05:41;9.00;99.90
45729;DHT22;31439;53.512;10.206;2023-10-19T15:08:08;9.00;99.90
45729;DHT22;31439;53.512;10.206;2023-10-19T15:10:39;9.00;99.90
45729;DHT22;31439;53.512;10.206;2023-10-19T15:13:05;9.00;99.90
45729;DHT22;31439;53.512;10.206;2023-10-19T15:15:31;9.10;99.90
45729;DHT22;31439;53.512;10.206;2023-10-19T15:17:57;9.10;99.90
45729;DHT22;31439;53.512;10.206;2023-10-19T15:20:27;9.00;99.90
45729;DHT22;31439;53.512;10.206;2023-10-19T15:22:53;8.90;99.90
45729;DHT22;31439;53.512;10.206;2023-10-19T15:25:19;9.00;99.90
45729;DHT22;31439;53.512;10.206;2023-10-19T15:27:47;9.00;99.90
45729;DHT22;31439;53.512;10.206;2023-10-19T15:30:14;8.90;99.90
45729;DHT22;31439;53.512;10.206;2023-10-19T15:32:41;8.90;99.90
45729;DHT22;31439;53.512;10.206;2023-10-19T15:35:11;8.90;99.90
45729;DHT22;31439;53.512;10.206;2023-10-19T15:37:38;8.90;99.90
45729;DHT22;31439;53.512;10.206;2023-10-19T15:40:04;8.90;99.90
45729;DHT22;31439;53.512;10.206;2023-10-19T15:42:30;9.00;99.90
45729;DHT22;31439;53.512;10.206;2023-10-19T15:44:56;9.00;99.90
45729;DHT22;31439;53.512;10.206;2023-10-19T15:47:22;9.00;99.90